sensor_id;sensor_type;location;lat;lon;timestamp;pressure;altitude;pressure_sealevel;temperature;humidity
77639;BME280;66802;52.574;14.398;2023-04-19T03:01:47;102685.66;;;3.51;72.39
77639;BME280;66802;52.574;14.398;2023-04-19T03:04:14;102684.00;;;3.47;72.69
77639;BME280;66802;52.574;14.398;2023-04-19T03:06:39;102674.41;;;3.43;72.06
77639;BME280;66802;52.574;14.398;2023-04-19T03:09:06;102666.41;;;3.43;72.20
77639;BME280;66802;52.574;14.398;2023-04-19T03:11:31;102665.69;;;3.38;71.79
77639;BME280;66802;52.574;14.398;2023-04-19T03:13:57;102668.84;;;3.26;72.26
77639;BME280;66802;52.574;14.398;2023-04-19T03:16:22;102669.88;;;3.23;72.26
77639;BME280;66802;52.574;14.398;2023-04-19T03:18:48;102662.84;;;3.21;72.43
77639;BME280;66802;52.574;14.398;2023-04-19T03:21:13;102660.22;;;3.19;72.24
77639;BME280;66802;52.574;14.398;2023-04-19T03:23:39;102661.41;;;3.12;72.53
77639;BME280;66802;52.574;14.398;2023-04-19T03:26:05;102655.31;;;3.09;72.68
77639;BME280;66802;52.574;14.398;2023-04-19T03:28:30;102658.34;;;3.00;73.19
77639;BME280;66802;52.574;14.398;2023-04-19T03:30:56;102648.81;;;2.92;73.81
77639;BME280;66802;52.574;14.398;2023-04-19T03:33:21;102638.13;;;2.92;74.58
77639;BME280;66802;52.574;14.398;2023-04-19T03:35:47;102637.41;;;2.89;73.94
77639;BME280;66802;52.574;14.398;2023-04-19T03:38:12;102645.50;;;2.86;74.69
77639;BME280;66802;52.574;14.398;2023-04-19T03:40:38;102641.28;;;2.80;75.04
77639;BME280;66802;52.574;14.398;2023-04-19T03:43:04;102630.53;;;2.82;75.04
77639;BME280;66802;52.574;14.398;2023-04-19T03:45:29;102629.66;;;2.81;74.77
77639;BME280;66802;52.574;14.398;2023-04-19T03:47:55;102626.09;;;2.82;74.73
77639;BME280;66802;52.574;14.398;2023-04-19T03:50:20;102618.91;;;2.84;74.89
77639;BME280;66802;52.574;14.398;2023-04-19T03:52:46;102624.34;;;2.81;75.07
77639;BME280;66802;52.574;14.398;2023-04-19T03:55:12;102614.75;;;2.77;74.51
77639;BME280;66802;52.574;14.398;2023-04-19T03:57:38;102621.09;;;2.73;74.58
77639;BME280;66802;52.574;14.398;2023-04-19T04:00:04;102608.13;;;2.64;74.86
77639;BME280;66802;52.574;14.398;2023-04-19T04:02:36;102601.34;;;2.55;75.34
77639;BME280;66802;52.574;14.398;2023-04-19T04:05:03;102603.34;;;2.49;76.00
77639;BME280;66802;52.574;14.398;2023-04-19T04:07:28;102604.41;;;2.45;76.13
77639;BME280;66802;52.574;14.398;2023-04-19T04:09:54;102603.63;;;2.41;76.93
77639;BME280;66802;52.574;14.398;2023-04-19T04:12:19;102593.09;;;2.38;76.85
77639;BME280;66802;52.574;14.398;2023-04-19T04:14:45;102595.94;;;2.34;76.43
77639;BME280;66802;52.574;14.398;2023-04-19T04:17:10;102591.69;;;2.28;76.57
77639;BME280;66802;52.574;14.398;2023-04-19T04:19:36;102592.50;;;2.30;77.46
77639;BME280;66802;52.574;14.398;2023-04-19T04:22:02;102591.53;;;2.33;76.85
77639;BME280;66802;52.574;14.398;2023-04-19T04:24:28;102594.19;;;2.33;77.51
77639;BME280;66802;52.574;14.398;2023-04-19T04:26:55;102603.22;;;2.29;77.46
77639;BME280;66802;52.574;14.398;2023-04-19T04:29:22;102606.66;;;2.32;77.33
77639;BME280;66802;52.574;14.398;2023-04-19T04:31:48;102600.34;;;2.35;77.23
77639;BME280;66802;52.574;14.398;2023-04-19T04:34:13;102597.69;;;2.35;77.58
77639;BME280;66802;52.574;14.398;2023-04-19T04:36:39;102592.28;;;2.36;77.13
77639;BME280;66802;52.574;14.398;2023-04-19T04:39:06;102589.63;;;2.36;77.14
77639;BME280;66802;52.574;14.398;2023-04-19T04:41:36;102587.34;;;2.26;78.89
77639;BME280;66802;52.574;14.398;2023-04-19T04:44:01;102583.81;;;2.25;78.52
77639;BME280;66802;52.574;14.398;2023-04-19T04:46:29;102583.06;;;2.22;78.46
77639;BME280;66802;52.574;14.398;2023-04-19T04:48:54;102579.41;;;2.24;79.00
77639;BME280;66802;52.574;14.398;2023-04-19T04:51:20;102584.47;;;2.32;79.41
77639;BME280;66802;52.574;14.398;2023-04-19T04:53:45;102583.28;;;2.39;79.25
77639;BME280;66802;52.574;14.398;2023-04-19T04:56:11;102580.41;;;2.45;78.89
77639;BME280;66802;52.574;14.398;2023-04-19T04:58:37;102573.19;;;2.48;78.66
77639;BME280;66802;52.574;14.398;2023-04-19T05:01:02;102571.22;;;2.53;79.40
77639;BME280;66802;52.574;14.398;2023-04-19T05:03:28;102573.72;;;2.58;79.86
77639;BME280;66802;52.574;14.398;2023-04-19T05:05:54;102578.22;;;2.56;80.68
77639;BME280;66802;52.574;14.398;2023-04-19T05:08:20;102581.72;;;2.58;80.55
77639;BME280;66802;52.574;14.398;2023-04-19T05:10:46;102585.06;;;2.63;81.10
77639;BME280;66802;52.574;14.398;2023-04-19T05:13:11;102579.38;;;2.72;80.90
77639;BME280;66802;52.574;14.398;2023-04-19T05:15:37;102575.59;;;2.78;81.50
77639;BME280;66802;52.574;14.398;2023-04-19T05:18:04;102573.81;;;2.78;82.09
77639;BME280;66802;52.574;14.398;2023-04-19T05:20:30;102566.44;;;2.85;82.29
77639;BME280;66802;52.574;14.398;2023-04-19T05:22:57;102575.88;;;2.93;82.65
77639;BME280;66802;52.574;14.398;2023-04-19T05:25:23;102568.44;;;3.02;82.77
77639;BME280;66802;52.574;14.398;2023-04-19T05:27:48;102565.25;;;3.14;82.38
77639;BME280;66802;52.574;14.398;2023-04-19T05:30:14;102568.81;;;3.14;83.06
77639;BME280;66802;52.574;14.398;2023-04-19T05:32:39;102559.69;;;3.20;83.13
77639;BME280;66802;52.574;14.398;2023-04-19T05:35:05;102554.19;;;3.24;82.73
77639;BME280;66802;52.574;14.398;2023-04-19T05:37:31;102560.13;;;3.31;82.76
77639;BME280;66802;52.574;14.398;2023-04-19T05:39:57;102557.88;;;3.42;82.14
77639;BME280;66802;52.574;14.398;2023-04-19T05:42:22;102554.88;;;3.50;82.10
77639;BME280;66802;52.574;14.398;2023-04-19T05:44:48;102546.47;;;3.59;82.61
77639;BME280;66802;52.574;14.398;2023-04-19T05:47:13;102546.09;;;3.68;82.63
77639;BME280;66802;52.574;14.398;2023-04-19T05:49:39;102552.22;;;3.70;82.83
77639;BME280;66802;52.574;14.398;2023-04-19T05:52:04;102543.97;;;3.76;82.18
77639;BME280;66802;52.574;14.398;2023-04-19T05:54:30;102545.91;;;3.93;81.22
77639;BME280;66802;52.574;14.398;2023-04-19T05:57:03;102541.19;;;3.99;81.46
77639;BME280;66802;52.574;14.398;2023-04-19T05:59:28;102537.28;;;4.07;80.64
77639;BME280;66802;52.574;14.398;2023-04-19T06:01:54;102537.38;;;4.24;79.42
77639;BME280;66802;52.574;14.398;2023-04-19T06:04:23;102547.06;;;4.26;78.77
77639;BME280;66802;52.574;14.398;2023-04-19T06:06:48;102535.03;;;4.36;78.71
77639;BME280;66802;52.574;14.398;2023-04-19T06:09:14;102528.66;;;4.39;78.78
77639;BME280;66802;52.574;14.398;2023-04-19T06:11:40;102521.22;;;4.46;78.38
77639;BME280;66802;52.574;14.398;2023-04-19T06:14:05;102520.00;;;4.53;78.33
77639;BME280;66802;52.574;14.398;2023-04-19T06:16:31;102525.13;;;4.57;77.58
77639;BME280;66802;52.574;14.398;2023-04-19T06:18:57;102511.19;;;4.69;77.35
77639;BME280;66802;52.574;14.398;2023-04-19T06:21:22;102509.59;;;4.84;76.53
77639;BME280;66802;52.574;14.398;2023-04-19T06:23:48;102507.25;;;4.95;76.81
77639;BME280;66802;52.574;14.398;2023-04-19T06:26:13;102497.84;;;5.05;75.74
77639;BME280;66802;52.574;14.398;2023-04-19T06:28:39;102496.50;;;5.14;75.27
77639;BME280;66802;52.574;14.398;2023-04-19T06:31:04;102495.19;;;5.23;74.25
77639;BME280;66802;52.574;14.398;2023-04-19T06:33:30;102492.34;;;5.43;74.66
77639;BME280;66802;52.574;14.398;2023-04-19T06:35:56;102501.84;;;5.50;74.17
77639;BME280;66802;52.574;14.398;2023-04-19T06:38:21;102499.22;;;5.66;73.95
77639;BME280;66802;52.574;14.398;2023-04-19T06:40:47;102491.56;;;5.75;73.88
77639;BME280;66802;52.574;14.398;2023-04-19T06:43:12;102493.41;;;5.92;72.19
77639;BME280;66802;52.574;14.398;2023-04-19T06:45:38;102492.47;;;5.93;72.58
77639;BME280;66802;52.574;14.398;2023-04-19T06:48:04;102489.50;;;5.98;71.79
77639;BME280;66802;52.574;14.398;2023-04-19T06:50:29;102491.31;;;5.97;70.88
77639;BME280;66802;52.574;14.398;2023-04-19T06:52:55;102483.28;;;5.97;72.53
77639;BME280;66802;52.574;14.398;2023-04-19T06:55:20;102485.47;;;6.06;71.23
77639;BME280;66802;52.574;14.398;2023-04-19T06:57:46;102479.38;;;6.20;71.21
77639;BME280;66802;52.574;14.398;2023-04-19T07:00:12;102488.72;;;6.29;71.49
77639;BME280;66802;52.574;14.398;2023-04-19T07:02:38;102475.69;;;6.54;70.33
77639;BME280;66802;52.574;14.398;2023-04-19T07:05:04;102475.53;;;6.73;70.38
77639;BME280;66802;52.574;14.398;2023-04-19T07:07:30;102477.59;;;6.99;69.24
77639;BME280;66802;52.574;14.398;2023-04-19T07:09:55;102478.16;;;7.20;69.43
77639;BME280;66802;52.574;14.398;2023-04-19T07:12:21;102473.09;;;7.29;68.16
77639;BME280;66802;52.574;14.398;2023-04-19T07:14:46;102469.72;;;7.26;67.83
77639;BME280;66802;52.574;14.398;2023-04-19T07:17:12;102464.56;;;7.23;67.35
77639;BME280;66802;52.574;14.398;2023-04-19T07:19:38;102461.50;;;7.29;67.18
77639;BME280;66802;52.574;14.398;2023-04-19T07:22:04;102456.09;;;7.45;66.91
77639;BME280;66802;52.574;14.398;2023-04-19T07:24:30;102458.78;;;7.45;67.10
77639;BME280;66802;52.574;14.398;2023-04-19T07:26:56;102457.91;;;7.44;66.86
77639;BME280;66802;52.574;14.398;2023-04-19T07:29:22;102452.09;;;7.36;66.33
77639;BME280;66802;52.574;14.398;2023-04-19T07:31:47;102453.84;;;7.37;66.53
77639;BME280;66802;52.574;14.398;2023-04-19T07:34:13;102456.97;;;7.45;66.50
77639;BME280;66802;52.574;14.398;2023-04-19T07:36:38;102449.94;;;7.43;66.33
77639;BME280;66802;52.574;14.398;2023-04-19T07:39:04;102450.88;;;7.42;65.64
77639;BME280;66802;52.574;14.398;2023-04-19T07:41:31;102457.13;;;7.42;66.11
77639;BME280;66802;52.574;14.398;2023-04-19T07:43:57;102454.16;;;7.47;64.80
77639;BME280;66802;52.574;14.398;2023-04-19T07:46:22;102448.69;;;7.48;63.93
77639;BME280;66802;52.574;14.398;2023-04-19T07:48:48;102437.63;;;7.39;64.41
77639;BME280;66802;52.574;14.398;2023-04-19T07:51:15;102439.19;;;7.43;64.41
77639;BME280;66802;52.574;14.398;2023-04-19T07:53:42;102439.88;;;7.60;64.60
77639;BME280;66802;52.574;14.398;2023-04-19T07:56:09;102433.09;;;7.83;63.36
77639;BME280;66802;52.574;14.398;2023-04-19T07:58:36;102429.75;;;8.08;63.14
77639;BME280;66802;52.574;14.398;2023-04-19T08:01:03;102432.94;;;8.43;62.67
77639;BME280;66802;52.574;14.398;2023-04-19T08:03:30;102431.91;;;8.58;61.43
77639;BME280;66802;52.574;14.398;2023-04-19T08:05:56;102435.03;;;8.79;60.48
77639;BME280;66802;52.574;14.398;2023-04-19T08:08:22;102414.75;;;9.00;59.98
77639;BME280;66802;52.574;14.398;2023-04-19T08:10:48;102423.53;;;9.17;58.42
77639;BME280;66802;52.574;14.398;2023-04-19T08:13:14;102432.63;;;9.28;57.72
77639;BME280;66802;52.574;14.398;2023-04-19T08:15:39;102429.50;;;9.34;57.68
77639;BME280;66802;52.574;14.398;2023-04-19T08:18:05;102416.78;;;9.36;57.41
77639;BME280;66802;52.574;14.398;2023-04-19T08:20:31;102427.03;;;9.44;58.45
77639;BME280;66802;52.574;14.398;2023-04-19T08:23:00;102403.09;;;9.65;59.04
77639;BME280;66802;52.574;14.398;2023-04-19T08:25:26;102411.75;;;9.70;58.10
77639;BME280;66802;52.574;14.398;2023-04-19T08:27:55;102425.34;;;9.94;58.60
77639;BME280;66802;52.574;14.398;2023-04-19T08:30:22;102420.81;;;9.94;57.93
77639;BME280;66802;52.574;14.398;2023-04-19T08:32:48;102429.22;;;10.02;56.59
77639;BME280;66802;52.574;14.398;2023-04-19T08:35:16;102429.22;;;9.77;56.09
77639;BME280;66802;52.574;14.398;2023-04-19T08:37:41;102424.69;;;9.77;55.89
77639;BME280;66802;52.574;14.398;2023-04-19T08:40:07;102411.41;;;10.00;57.11
77639;BME280;66802;52.574;14.398;2023-04-19T08:42:33;102419.47;;;10.12;57.01
77639;BME280;66802;52.574;14.398;2023-04-19T08:45:03;102411.81;;;10.19;56.51
77639;BME280;66802;52.574;14.398;2023-04-19T08:47:34;102403.09;;;10.15;55.82
77639;BME280;66802;52.574;14.398;2023-04-19T08:50:02;102411.19;;;10.15;56.00
77639;BME280;66802;52.574;14.398;2023-04-19T08:52:29;102401.03;;;10.19;56.99
77639;BME280;66802;52.574;14.398;2023-04-19T08:54:54;102399.56;;;10.39;55.14
77639;BME280;66802;52.574;14.398;2023-04-19T08:57:20;102399.03;;;10.46;55.12
77639;BME280;66802;52.574;14.398;2023-04-19T08:59:47;102399.78;;;10.72;55.66
77639;BME280;66802;52.574;14.398;2023-04-19T09:02:16;102392.72;;;10.82;54.76
77639;BME280;66802;52.574;14.398;2023-04-19T09:04:42;102391.94;;;11.04;55.01
77639;BME280;66802;52.574;14.398;2023-04-19T09:07:07;102391.84;;;11.06;53.90
77639;BME280;66802;52.574;14.398;2023-04-19T09:09:33;102377.94;;;10.99;53.23
77639;BME280;66802;52.574;14.398;2023-04-19T09:12:00;102386.09;;;11.10;53.64
77639;BME280;66802;52.574;14.398;2023-04-19T09:14:27;102383.28;;;11.12;53.90
77639;BME280;66802;52.574;14.398;2023-04-19T09:16:53;102375.34;;;10.97;53.80
77639;BME280;66802;52.574;14.398;2023-04-19T09:19:19;102382.22;;;10.90;53.96
77639;BME280;66802;52.574;14.398;2023-04-19T09:21:45;102373.69;;;10.84;54.17
77639;BME280;66802;52.574;14.398;2023-04-19T09:24:11;102376.59;;;11.05;54.94
77639;BME280;66802;52.574;14.398;2023-04-19T09:26:36;102371.16;;;11.28;54.21
77639;BME280;66802;52.574;14.398;2023-04-19T09:29:06;102359.03;;;11.45;53.40
77639;BME280;66802;52.574;14.398;2023-04-19T09:31:35;102355.34;;;11.35;53.70
77639;BME280;66802;52.574;14.398;2023-04-19T09:34:15;102352.13;;;11.41;52.32
77639;BME280;66802;52.574;14.398;2023-04-19T09:36:43;102353.88;;;11.53;52.89
77639;BME280;66802;52.574;14.398;2023-04-19T09:39:08;102347.72;;;11.51;51.95
77639;BME280;66802;52.574;14.398;2023-04-19T09:41:50;102346.13;;;11.71;52.52
77639;BME280;66802;52.574;14.398;2023-04-19T09:44:16;102340.47;;;11.52;52.83
77639;BME280;66802;52.574;14.398;2023-04-19T09:46:43;102346.50;;;11.44;51.87
77639;BME280;66802;52.574;14.398;2023-04-19T09:51:56;102338.38;;;11.33;52.53
77639;BME280;66802;52.574;14.398;2023-04-19T09:54:24;102338.06;;;11.25;52.37
77639;BME280;66802;52.574;14.398;2023-04-19T09:56:52;102330.97;;;11.24;53.77
77639;BME280;66802;52.574;14.398;2023-04-19T09:59:18;102338.34;;;11.22;52.47
77639;BME280;66802;52.574;14.398;2023-04-19T10:01:46;102340.75;;;11.03;53.49
77639;BME280;66802;52.574;14.398;2023-04-19T10:04:15;102331.81;;;11.13;53.39
77639;BME280;66802;52.574;14.398;2023-04-19T10:06:48;102327.50;;;11.11;54.28
77639;BME280;66802;52.574;14.398;2023-04-19T10:09:14;102334.66;;;11.23;54.67
77639;BME280;66802;52.574;14.398;2023-04-19T10:11:49;102333.91;;;11.21;54.23
77639;BME280;66802;52.574;14.398;2023-04-19T10:14:18;102329.78;;;11.04;53.53
77639;BME280;66802;52.574;14.398;2023-04-19T10:16:46;102321.19;;;10.99;53.23
77639;BME280;66802;52.574;14.398;2023-04-19T10:19:15;102321.66;;;10.93;53.35
77639;BME280;66802;52.574;14.398;2023-04-19T10:21:42;102322.66;;;10.92;53.47
77639;BME280;66802;52.574;14.398;2023-04-19T10:24:12;102321.53;;;10.94;53.82
77639;BME280;66802;52.574;14.398;2023-04-19T10:27:12;102311.44;;;10.85;53.98
77639;BME280;66802;52.574;14.398;2023-04-19T10:32:27;102318.03;;;10.70;53.45
77639;BME280;66802;52.574;14.398;2023-04-19T10:34:53;102310.44;;;10.51;54.25
77639;BME280;66802;52.574;14.398;2023-04-19T10:37:24;102317.06;;;10.47;54.33
77639;BME280;66802;52.574;14.398;2023-04-19T10:39:50;102314.84;;;10.29;55.35
77639;BME280;66802;52.574;14.398;2023-04-19T10:42:16;102324.38;;;10.21;56.28
77639;BME280;66802;52.574;14.398;2023-04-19T10:47:45;102312.28;;;10.27;56.75
77639;BME280;66802;52.574;14.398;2023-04-19T10:50:11;102316.56;;;10.30;57.31
77639;BME280;66802;52.574;14.398;2023-04-19T10:52:37;102314.63;;;10.32;56.12
77639;BME280;66802;52.574;14.398;2023-04-19T10:55:03;102317.81;;;10.26;55.82
77639;BME280;66802;52.574;14.398;2023-04-19T10:58:04;102315.22;;;10.24;56.33
77639;BME280;66802;52.574;14.398;2023-04-19T11:00:31;102318.78;;;10.24;57.19
77639;BME280;66802;52.574;14.398;2023-04-19T11:06:18;102315.59;;;10.31;56.49
77639;BME280;66802;52.574;14.398;2023-04-19T11:08:45;102314.47;;;10.22;55.85
77639;BME280;66802;52.574;14.398;2023-04-19T11:11:12;102294.47;;;10.24;55.44
77639;BME280;66802;52.574;14.398;2023-04-19T11:13:41;102309.44;;;10.29;55.80
77639;BME280;66802;52.574;14.398;2023-04-19T11:16:08;102299.84;;;10.37;53.69
77639;BME280;66802;52.574;14.398;2023-04-19T11:18:33;102306.44;;;10.33;54.23
77639;BME280;66802;52.574;14.398;2023-04-19T11:20:59;102309.69;;;10.49;54.24
77639;BME280;66802;52.574;14.398;2023-04-19T11:23:25;102303.84;;;10.55;53.71
77639;BME280;66802;52.574;14.398;2023-04-19T11:25:52;102303.78;;;10.68;53.14
77639;BME280;66802;52.574;14.398;2023-04-19T11:28:18;102294.00;;;10.78;53.17
77639;BME280;66802;52.574;14.398;2023-04-19T11:30:46;102293.25;;;10.76;53.97
77639;BME280;66802;52.574;14.398;2023-04-19T11:33:12;102286.47;;;10.71;54.38
77639;BME280;66802;52.574;14.398;2023-04-19T11:35:38;102291.03;;;10.70;54.15
77639;BME280;66802;52.574;14.398;2023-04-19T11:38:06;102286.28;;;10.61;51.89
77639;BME280;66802;52.574;14.398;2023-04-19T11:40:32;102290.19;;;10.46;53.03
77639;BME280;66802;52.574;14.398;2023-04-19T11:42:59;102289.25;;;10.34;54.92
77639;BME280;66802;52.574;14.398;2023-04-19T11:45:30;102285.16;;;10.29;52.54
77639;BME280;66802;52.574;14.398;2023-04-19T11:47:57;102276.78;;;10.20;53.72
77639;BME280;66802;52.574;14.398;2023-04-19T11:52:54;102290.31;;;9.95;55.94
77639;BME280;66802;52.574;14.398;2023-04-19T11:55:20;102287.50;;;9.73;57.04
77639;BME280;66802;52.574;14.398;2023-04-19T11:57:46;102295.50;;;9.62;58.13
77639;BME280;66802;52.574;14.398;2023-04-19T12:00:13;102283.75;;;9.37;58.20
77639;BME280;66802;52.574;14.398;2023-04-19T12:02:41;102299.16;;;9.23;59.83
77639;BME280;66802;52.574;14.398;2023-04-19T12:05:14;102301.72;;;9.11;60.27
77639;BME280;66802;52.574;14.398;2023-04-19T12:10:28;102276.88;;;9.08;60.58
77639;BME280;66802;52.574;14.398;2023-04-19T12:12:54;102268.03;;;9.06;62.48
77639;BME280;66802;52.574;14.398;2023-04-19T12:15:19;102273.94;;;9.11;61.84
77639;BME280;66802;52.574;14.398;2023-04-19T12:17:56;102265.75;;;9.12;62.71
77639;BME280;66802;52.574;14.398;2023-04-19T12:20:35;102254.88;;;9.14;62.85
77639;BME280;66802;52.574;14.398;2023-04-19T12:23:02;102241.28;;;9.15;63.57
77639;BME280;66802;52.574;14.398;2023-04-19T12:25:29;102243.53;;;9.09;62.35
77639;BME280;66802;52.574;14.398;2023-04-19T12:27:56;102231.69;;;9.11;64.23
77639;BME280;66802;52.574;14.398;2023-04-19T12:30:21;102213.06;;;9.08;63.64
77639;BME280;66802;52.574;14.398;2023-04-19T12:32:47;102222.22;;;9.06;63.37
77639;BME280;66802;52.574;14.398;2023-04-19T12:35:13;102208.41;;;8.98;62.76
77639;BME280;66802;52.574;14.398;2023-04-19T12:37:38;102218.09;;;8.88;63.56
77639;BME280;66802;52.574;14.398;2023-04-19T12:40:04;102218.09;;;8.88;64.46
77639;BME280;66802;52.574;14.398;2023-04-19T12:42:30;102235.78;;;8.92;66.27
77639;BME280;66802;52.574;14.398;2023-04-19T12:44:55;102231.94;;;8.96;64.82
77639;BME280;66802;52.574;14.398;2023-04-19T12:47:21;102223.28;;;8.91;60.09
77639;BME280;66802;52.574;14.398;2023-04-19T12:49:46;102223.06;;;8.81;60.41
77639;BME280;66802;52.574;14.398;2023-04-19T12:52:12;102217.56;;;8.70;61.86
77639;BME280;66802;52.574;14.398;2023-04-19T12:54:38;102211.22;;;8.71;61.48
77639;BME280;66802;52.574;14.398;2023-04-19T12:57:03;102215.50;;;8.61;62.64
77639;BME280;66802;52.574;14.398;2023-04-19T12:59:29;102202.81;;;8.63;61.31
77639;BME280;66802;52.574;14.398;2023-04-19T13:01:55;102207.75;;;8.56;63.29
77639;BME280;66802;52.574;14.398;2023-04-19T13:04:20;102205.91;;;8.57;64.14
77639;BME280;66802;52.574;14.398;2023-04-19T13:06:46;102206.00;;;8.55;64.23
77639;BME280;66802;52.574;14.398;2023-04-19T13:09:11;102199.91;;;8.53;64.27
77639;BME280;66802;52.574;14.398;2023-04-19T13:11:37;102202.16;;;8.59;65.12
77639;BME280;66802;52.574;14.398;2023-04-19T13:14:02;102192.25;;;8.60;63.20
77639;BME280;66802;52.574;14.398;2023-04-19T13:16:28;102170.06;;;8.44;62.57
77639;BME280;66802;52.574;14.398;2023-04-19T13:18:53;102173.16;;;8.37;62.56
77639;BME280;66802;52.574;14.398;2023-04-19T13:21:20;102167.63;;;8.26;64.74
77639;BME280;66802;52.574;14.398;2023-04-19T13:23:45;102163.31;;;8.24;65.29
77639;BME280;66802;52.574;14.398;2023-04-19T13:26:11;102149.00;;;8.23;65.47
77639;BME280;66802;52.574;14.398;2023-04-19T13:28:36;102143.31;;;8.28;65.80
77639;BME280;66802;52.574;14.398;2023-04-19T13:31:03;102144.47;;;8.24;66.85
77639;BME280;66802;52.574;14.398;2023-04-19T13:33:29;102139.09;;;8.24;67.52
77639;BME280;66802;52.574;14.398;2023-04-19T13:35:55;102135.34;;;8.26;67.16
77639;BME280;66802;52.574;14.398;2023-04-19T13:38:21;102130.81;;;8.27;67.76
77639;BME280;66802;52.574;14.398;2023-04-19T13:40:46;102132.53;;;8.28;68.13
77639;BME280;66802;52.574;14.398;2023-04-19T13:43:12;102131.06;;;8.36;67.56
77639;BME280;66802;52.574;14.398;2023-04-19T13:45:37;102131.19;;;8.35;68.44
77639;BME280;66802;52.574;14.398;2023-04-19T13:48:03;102119.25;;;8.39;68.77
77639;BME280;66802;52.574;14.398;2023-04-19T13:50:29;102139.59;;;8.43;69.50
77639;BME280;66802;52.574;14.398;2023-04-19T13:52:55;102143.16;;;8.56;69.33
77639;BME280;66802;52.574;14.398;2023-04-19T13:55:20;102135.09;;;8.44;69.62
77639;BME280;66802;52.574;14.398;2023-04-19T13:57:46;102132.81;;;8.37;66.91
77639;BME280;66802;52.574;14.398;2023-04-19T14:00:12;102137.50;;;8.21;66.07
77639;BME280;66802;52.574;14.398;2023-04-19T14:02:38;102134.91;;;8.20;66.79
77639;BME280;66802;52.574;14.398;2023-04-19T14:05:04;102125.84;;;8.08;68.14
77639;BME280;66802;52.574;14.398;2023-04-19T14:07:29;102121.53;;;8.05;68.24
77639;BME280;66802;52.574;14.398;2023-04-19T14:09:55;102126.56;;;7.97;69.36
77639;BME280;66802;52.574;14.398;2023-04-19T14:12:21;102122.91;;;7.98;68.40
77639;BME280;66802;52.574;14.398;2023-04-19T14:14:46;102117.66;;;7.97;69.19
77639;BME280;66802;52.574;14.398;2023-04-19T14:17:12;102107.63;;;7.86;69.71
77639;BME280;66802;52.574;14.398;2023-04-19T14:19:37;102108.78;;;7.82;70.36
77639;BME280;66802;52.574;14.398;2023-04-19T14:22:03;102097.63;;;7.88;71.28
77639;BME280;66802;52.574;14.398;2023-04-19T14:24:28;102095.66;;;7.78;71.83
77639;BME280;66802;52.574;14.398;2023-04-19T14:26:54;102091.34;;;7.75;72.98
77639;BME280;66802;52.574;14.398;2023-04-19T14:29:19;102092.31;;;7.74;73.23
77639;BME280;66802;52.574;14.398;2023-04-19T14:31:45;102089.81;;;7.71;73.05
77639;BME280;66802;52.574;14.398;2023-04-19T14:34:10;102101.53;;;7.70;73.25
77639;BME280;66802;52.574;14.398;2023-04-19T14:36:36;102097.09;;;7.69;73.39
77639;BME280;66802;52.574;14.398;2023-04-19T14:39:02;102102.72;;;7.66;73.29
77639;BME280;66802;52.574;14.398;2023-04-19T14:41:27;102096.06;;;7.72;73.04
77639;BME280;66802;52.574;14.398;2023-04-19T14:43:53;102107.13;;;7.67;72.92
77639;BME280;66802;52.574;14.398;2023-04-19T14:46:20;102099.59;;;7.72;72.28
77639;BME280;66802;52.574;14.398;2023-04-19T14:48:45;102101.28;;;7.60;73.09
77639;BME280;66802;52.574;14.398;2023-04-19T14:51:11;102107.56;;;7.47;73.46
77639;BME280;66802;52.574;14.398;2023-04-19T14:53:37;102106.56;;;7.35;73.81
77639;BME280;66802;52.574;14.398;2023-04-19T14:56:05;102106.34;;;7.38;74.24
77639;BME280;66802;52.574;14.398;2023-04-19T14:58:30;102108.75;;;7.28;75.26
77639;BME280;66802;52.574;14.398;2023-04-19T15:00:57;102098.44;;;7.22;75.24
77639;BME280;66802;52.574;14.398;2023-04-19T15:03:23;102098.81;;;7.16;75.64
77639;BME280;66802;52.574;14.398;2023-04-19T15:05:49;102087.44;;;7.13;75.97
77639;BME280;66802;52.574;14.398;2023-04-19T15:08:14;102094.53;;;7.14;76.41
77639;BME280;66802;52.574;14.398;2023-04-19T15:10:40;102092.66;;;7.14;76.88
77639;BME280;66802;52.574;14.398;2023-04-19T15:13:05;102088.47;;;7.10;77.13
77639;BME280;66802;52.574;14.398;2023-04-19T15:15:31;102089.94;;;7.02;77.41
77639;BME280;66802;52.574;14.398;2023-04-19T15:17:56;102083.72;;;7.01;77.60
77639;BME280;66802;52.574;14.398;2023-04-19T15:20:22;102081.13;;;7.00;77.91
77639;BME280;66802;52.574;14.398;2023-04-19T15:22:47;102090.22;;;6.97;77.99
77639;BME280;66802;52.574;14.398;2023-04-19T15:25:13;102078.44;;;7.00;77.80
77639;BME280;66802;52.574;14.398;2023-04-19T15:27:38;102076.81;;;6.97;78.28
77639;BME280;66802;52.574;14.398;2023-04-19T15:30:05;102076.81;;;6.97;78.30
77639;BME280;66802;52.574;14.398;2023-04-19T15:32:31;102077.38;;;7.02;78.13
77639;BME280;66802;52.574;14.398;2023-04-19T15:34:58;102072.97;;;7.01;78.40
77639;BME280;66802;52.574;14.398;2023-04-19T15:37:24;102073.94;;;7.00;78.41
77639;BME280;66802;52.574;14.398;2023-04-19T15:39:50;102071.53;;;6.95;78.44
77639;BME280;66802;52.574;14.398;2023-04-19T15:42:15;102063.38;;;6.97;78.71
77639;BME280;66802;52.574;14.398;2023-04-19T15:44:41;102066.75;;;7.01;78.65
77639;BME280;66802;52.574;14.398;2023-04-19T15:47:06;102072.19;;;6.99;78.72
77639;BME280;66802;52.574;14.398;2023-04-19T15:49:32;102068.66;;;6.99;78.50
77639;BME280;66802;52.574;14.398;2023-04-19T15:51:57;102073.06;;;7.00;78.42
77639;BME280;66802;52.574;14.398;2023-04-19T15:54:23;102071.34;;;6.99;78.33
77639;BME280;66802;52.574;14.398;2023-04-19T15:56:48;102076.81;;;6.97;78.83
77639;BME280;66802;52.574;14.398;2023-04-19T15:59:14;102070.22;;;6.88;79.36
77639;BME280;66802;52.574;14.398;2023-04-19T16:01:40;102072.47;;;6.94;78.78